sensor_id;sensor_type;location;lat;lon;timestamp;P1;durP1;ratioP1;P2;durP2;ratioP2
20179;SDS011;10249;48.900;9.090;2024-01-15T00:00:26;8.53;;;8.23;;
20179;SDS011;10249;48.900;9.090;2024-01-15T00:02:53;8.30;;;8.00;;
20179;SDS011;10249;48.900;9.090;2024-01-15T00:05:20;8.40;;;8.10;;
20179;SDS011;10249;48.900;9.090;2024-01-15T00:07:47;8.00;;;7.80;;
20179;SDS011;10249;48.900;9.090;2024-01-15T00:10:14;8.67;;;8.37;;
20179;SDS011;10249;48.900;9.090;2024-01-15T00:12:41;7.87;;;7.67;;
20179;SDS011;10249;48.900;9.090;2024-01-15T00:15:10;15.50;;;10.83;;
20179;SDS011;10249;48.900;9.090;2024-01-15T00:17:37;8.83;;;8.40;;
20179;SDS011;10249;48.900;9.090;2024-01-15T00:20:04;10.27;;;9.57;;
20179;SDS011;10249;48.900;9.090;2024-01-15T00:22:32;8.13;;;7.83;;
20179;SDS011;10249;48.900;9.090;2024-01-15T00:25:00;8.97;;;8.67;;
20179;SDS011;10249;48.900;9.090;2024-01-15T00:27:27;7.73;;;7.53;;
20179;SDS011;10249;48.900;9.090;2024-01-15T00:29:54;8.47;;;8.17;;
20179;SDS011;10249;48.900;9.090;2024-01-15T00:32:23;8.10;;;7.80;;
20179;SDS011;10249;48.900;9.090;2024-01-15T00:34:50;8.40;;;8.10;;
20179;SDS011;10249;48.900;9.090;2024-01-15T00:37:17;7.80;;;7.60;;
20179;SDS011;10249;48.900;9.090;2024-01-15T00:39:44;8.73;;;8.33;;
20179;SDS011;10249;48.900;9.090;2024-01-15T00:42:11;8.97;;;8.30;;
20179;SDS011;10249;48.900;9.090;2024-01-15T00:44:38;10.67;;;9.47;;
20179;SDS011;10249;48.900;9.090;2024-01-15T00:47:05;9.60;;;8.77;;
20179;SDS011;10249;48.900;9.090;2024-01-15T00:49:34;10.37;;;9.77;;
20179;SDS011;10249;48.900;9.090;2024-01-15T00:52:01;10.10;;;9.60;;
20179;SDS011;10249;48.900;9.090;2024-01-15T00:54:28;10.93;;;10.23;;
20179;SDS011;10249;48.900;9.090;2024-01-15T00:56:55;13.20;;;12.00;;
20179;SDS011;10249;48.900;9.090;2024-01-15T00:59:22;9.73;;;9.00;;
20179;SDS011;10249;48.900;9.090;2024-01-15T01:01:49;9.93;;;9.43;;
20179;SDS011;10249;48.900;9.090;2024-01-15T01:04:16;10.17;;;9.47;;
20179;SDS011;10249;48.900;9.090;2024-01-15T01:06:45;12.43;;;11.20;;
20179;SDS011;10249;48.900;9.090;2024-01-15T01:09:12;10.87;;;10.27;;
20179;SDS011;10249;48.900;9.090;2024-01-15T01:11:39;9.60;;;9.30;;
20179;SDS011;10249;48.900;9.090;2024-01-15T01:14:06;9.57;;;8.97;;
20179;SDS011;10249;48.900;9.090;2024-01-15T01:16:33;10.03;;;9.50;;
20179;SDS011;10249;48.900;9.090;2024-01-15T01:19:03;9.53;;;9.03;;
20179;SDS011;10249;48.900;9.090;2024-01-15T01:21:31;10.53;;;9.87;;
20179;SDS011;10249;48.900;9.090;2024-01-15T01:23:59;10.07;;;9.17;;
20179;SDS011;10249;48.900;9.090;2024-01-15T01:26:26;9.97;;;9.23;;
20179;SDS011;10249;48.900;9.090;2024-01-15T01:28:53;10.20;;;9.53;;
20179;SDS011;10249;48.900;9.090;2024-01-15T01:31:21;9.47;;;9.07;;
20179;SDS011;10249;48.900;9.090;2024-01-15T01:33:48;9.53;;;9.03;;
20179;SDS011;10249;48.900;9.090;2024-01-15T01:36:15;7.70;;;7.50;;
20179;SDS011;10249;48.900;9.090;2024-01-15T01:38:42;10.47;;;9.40;;
20179;SDS011;10249;48.900;9.090;2024-01-15T01:41:10;11.17;;;10.43;;
20179;SDS011;10249;48.900;9.090;2024-01-15T01:43:37;9.03;;;8.73;;
20179;SDS011;10249;48.900;9.090;2024-01-15T01:46:04;9.57;;;8.97;;
20179;SDS011;10249;48.900;9.090;2024-01-15T01:48:32;8.40;;;8.10;;
20179;SDS011;10249;48.900;9.090;2024-01-15T01:51:00;9.83;;;9.43;;
20179;SDS011;10249;48.900;9.090;2024-01-15T01:53:30;9.13;;;8.83;;
20179;SDS011;10249;48.900;9.090;2024-01-15T01:55:58;10.70;;;10.07;;
20179;SDS011;10249;48.900;9.090;2024-01-15T01:58:27;10.13;;;9.63;;
20179;SDS011;10249;48.900;9.090;2024-01-15T02:00:55;8.73;;;8.43;;
20179;SDS011;10249;48.900;9.090;2024-01-15T02:03:22;8.40;;;8.10;;
20179;SDS011;10249;48.900;9.090;2024-01-15T02:05:49;8.30;;;8.00;;
20179;SDS011;10249;48.900;9.090;2024-01-15T02:08:16;9.97;;;9.43;;
20179;SDS011;10249;48.900;9.090;2024-01-15T02:10:43;10.27;;;9.87;;
20179;SDS011;10249;48.900;9.090;2024-01-15T02:13:11;8.30;;;8.00;;
20179;SDS011;10249;48.900;9.090;2024-01-15T02:15:40;9.80;;;9.40;;
20179;SDS011;10249;48.900;9.090;2024-01-15T02:18:08;9.50;;;9.00;;
20179;SDS011;10249;48.900;9.090;2024-01-15T02:20:35;8.90;;;8.50;;
20179;SDS011;10249;48.900;9.090;2024-01-15T02:23:10;10.70;;;10.20;;
20179;SDS011;10249;48.900;9.090;2024-01-15T02:25:38;8.60;;;8.30;;
20179;SDS011;10249;48.900;9.090;2024-01-15T02:28:05;9.00;;;8.67;;
20179;SDS011;10249;48.900;9.090;2024-01-15T02:30:32;8.50;;;8.20;;
20179;SDS011;10249;48.900;9.090;2024-01-15T02:33:01;10.20;;;9.90;;
20179;SDS011;10249;48.900;9.090;2024-01-15T02:35:29;8.53;;;8.23;;
20179;SDS011;10249;48.900;9.090;2024-01-15T02:37:56;8.90;;;8.60;;
20179;SDS011;10249;48.900;9.090;2024-01-15T02:40:24;10.80;;;10.40;;
20179;SDS011;10249;48.900;9.090;2024-01-15T02:42:51;8.70;;;8.40;;
20179;SDS011;10249;48.900;9.090;2024-01-15T02:45:19;8.67;;;8.37;;
20179;SDS011;10249;48.900;9.090;2024-01-15T02:47:46;9.53;;;9.03;;
20179;SDS011;10249;48.900;9.090;2024-01-15T02:50:13;8.60;;;8.30;;
20179;SDS011;10249;48.900;9.090;2024-01-15T02:52:41;8.50;;;8.20;;
20179;SDS011;10249;48.900;9.090;2024-01-15T02:55:08;9.17;;;8.87;;
20179;SDS011;10249;48.900;9.090;2024-01-15T02:57:36;10.23;;;9.80;;
20179;SDS011;10249;48.900;9.090;2024-01-15T03:00:04;8.57;;;8.27;;
20179;SDS011;10249;48.900;9.090;2024-01-15T03:02:32;8.47;;;8.17;;
20179;SDS011;10249;48.900;9.090;2024-01-15T03:04:59;8.70;;;8.40;;
20179;SDS011;10249;48.900;9.090;2024-01-15T03:07:27;8.90;;;8.60;;
20179;SDS011;10249;48.900;9.090;2024-01-15T03:09:54;9.00;;;8.70;;
20179;SDS011;10249;48.900;9.090;2024-01-15T03:12:21;10.00;;;9.53;;
20179;SDS011;10249;48.900;9.090;2024-01-15T03:14:50;8.77;;;8.47;;
20179;SDS011;10249;48.900;9.090;2024-01-15T03:17:17;7.70;;;7.50;;
20179;SDS011;10249;48.900;9.090;2024-01-15T03:19:44;9.07;;;8.57;;
20179;SDS011;10249;48.900;9.090;2024-01-15T03:22:11;8.87;;;8.57;;
20179;SDS011;10249;48.900;9.090;2024-01-15T03:24:38;8.47;;;8.17;;
20179;SDS011;10249;48.900;9.090;2024-01-15T03:27:05;10.17;;;9.23;;
20179;SDS011;10249;48.900;9.090;2024-01-15T03:29:32;8.43;;;8.13;;
20179;SDS011;10249;48.900;9.090;2024-01-15T03:32:01;10.57;;;9.87;;
20179;SDS011;10249;48.900;9.090;2024-01-15T03:34:28;8.60;;;8.30;;
20179;SDS011;10249;48.900;9.090;2024-01-15T03:36:55;8.60;;;8.30;;
20179;SDS011;10249;48.900;9.090;2024-01-15T03:39:23;9.17;;;8.77;;
20179;SDS011;10249;48.900;9.090;2024-01-15T03:41:51;10.27;;;9.87;;
20179;SDS011;10249;48.900;9.090;2024-01-15T03:44:18;11.53;;;10.07;;
20179;SDS011;10249;48.900;9.090;2024-01-15T03:46:45;8.90;;;8.60;;
20179;SDS011;10249;48.900;9.090;2024-01-15T03:49:13;10.70;;;10.17;;
20179;SDS011;10249;48.900;9.090;2024-01-15T03:51:40;9.30;;;8.87;;
20179;SDS011;10249;48.900;9.090;2024-01-15T03:54:08;8.90;;;8.50;;
20179;SDS011;10249;48.900;9.090;2024-01-15T03:56:35;9.90;;;9.50;;
20179;SDS011;10249;48.900;9.090;2024-01-15T03:59:02;10.43;;;9.93;;
20179;SDS011;10249;48.900;9.090;2024-01-15T04:01:29;10.37;;;9.87;;
20179;SDS011;10249;48.900;9.090;2024-01-15T04:03:56;10.27;;;9.83;;
20179;SDS011;10249;48.900;9.090;2024-01-15T04:06:25;9.57;;;9.27;;
20179;SDS011;10249;48.900;9.090;2024-01-15T04:08:52;10.57;;;10.10;;
20179;SDS011;10249;48.900;9.090;2024-01-15T04:11:19;9.37;;;9.07;;
20179;SDS011;10249;48.900;9.090;2024-01-15T04:13:47;9.00;;;8.70;;
20179;SDS011;10249;48.900;9.090;2024-01-15T04:16:14;9.97;;;9.57;;
20179;SDS011;10249;48.900;9.090;2024-01-15T04:18:41;10.87;;;10.27;;
20179;SDS011;10249;48.900;9.090;2024-01-15T04:21:08;10.00;;;9.70;;
20179;SDS011;10249;48.900;9.090;2024-01-15T04:23:37;10.47;;;9.97;;
20179;SDS011;10249;48.900;9.090;2024-01-15T04:26:04;11.30;;;10.80;;
20179;SDS011;10249;48.900;9.090;2024-01-15T04:28:31;12.37;;;11.10;;
20179;SDS011;10249;48.900;9.090;2024-01-15T04:30:58;9.37;;;9.07;;
20179;SDS011;10249;48.900;9.090;2024-01-15T04:33:25;10.60;;;10.20;;
20179;SDS011;10249;48.900;9.090;2024-01-15T04:35:52;9.97;;;9.67;;
20179;SDS011;10249;48.900;9.090;2024-01-15T04:38:19;9.73;;;9.43;;
20179;SDS011;10249;48.900;9.090;2024-01-15T04:40:48;10.70;;;10.30;;
20179;SDS011;10249;48.900;9.090;2024-01-15T04:43:15;9.93;;;9.53;;
20179;SDS011;10249;48.900;9.090;2024-01-15T04:45:42;9.70;;;9.40;;
20179;SDS011;10249;48.900;9.090;2024-01-15T04:48:09;11.27;;;10.50;;
20179;SDS011;10249;48.900;9.090;2024-01-15T04:50:36;9.87;;;9.50;;
20179;SDS011;10249;48.900;9.090;2024-01-15T04:53:03;10.30;;;9.90;;
20179;SDS011;10249;48.900;9.090;2024-01-15T04:55:30;11.77;;;11.17;;
20179;SDS011;10249;48.900;9.090;2024-01-15T04:57:59;10.87;;;10.30;;
20179;SDS011;10249;48.900;9.090;2024-01-15T05:00:26;10.77;;;10.37;;
20179;SDS011;10249;48.900;9.090;2024-01-15T05:02:53;10.77;;;10.07;;
20179;SDS011;10249;48.900;9.090;2024-01-15T05:05:21;10.10;;;9.80;;
20179;SDS011;10249;48.900;9.090;2024-01-15T05:07:48;10.13;;;9.83;;
20179;SDS011;10249;48.900;9.090;2024-01-15T05:10:15;11.33;;;10.50;;
20179;SDS011;10249;48.900;9.090;2024-01-15T05:12:42;9.77;;;9.47;;
20179;SDS011;10249;48.900;9.090;2024-01-15T05:15:11;22.77;;;16.23;;
20179;SDS011;10249;48.900;9.090;2024-01-15T05:17:38;10.80;;;10.40;;
20179;SDS011;10249;48.900;9.090;2024-01-15T05:20:05;10.57;;;10.07;;
20179;SDS011;10249;48.900;9.090;2024-01-15T05:22:32;9.90;;;9.60;;
20179;SDS011;10249;48.900;9.090;2024-01-15T05:24:59;12.27;;;11.87;;
20179;SDS011;10249;48.900;9.090;2024-01-15T05:27:26;10.50;;;10.10;;
20179;SDS011;10249;48.900;9.090;2024-01-15T05:29:53;10.50;;;10.10;;
20179;SDS011;10249;48.900;9.090;2024-01-15T05:32:22;11.10;;;10.60;;
20179;SDS011;10249;48.900;9.090;2024-01-15T05:34:49;10.77;;;10.37;;
20179;SDS011;10249;48.900;9.090;2024-01-15T05:37:16;11.10;;;10.70;;
20179;SDS011;10249;48.900;9.090;2024-01-15T05:39:43;10.87;;;10.40;;
20179;SDS011;10249;48.900;9.090;2024-01-15T05:42:10;10.43;;;10.03;;
20179;SDS011;10249;48.900;9.090;2024-01-15T05:44:37;11.30;;;10.80;;
20179;SDS011;10249;48.900;9.090;2024-01-15T05:47:04;12.70;;;11.57;;
20179;SDS011;10249;48.900;9.090;2024-01-15T05:49:33;11.53;;;11.13;;
20179;SDS011;10249;48.900;9.090;2024-01-15T05:52:01;10.27;;;9.97;;
20179;SDS011;10249;48.900;9.090;2024-01-15T05:54:29;10.60;;;10.20;;
20179;SDS011;10249;48.900;9.090;2024-01-15T05:56:56;11.17;;;10.77;;
20179;SDS011;10249;48.900;9.090;2024-01-15T05:59:23;10.60;;;10.20;;
20179;SDS011;10249;48.900;9.090;2024-01-15T06:01:50;10.70;;;10.30;;
20179;SDS011;10249;48.900;9.090;2024-01-15T06:04:17;11.43;;;11.03;;
20179;SDS011;10249;48.900;9.090;2024-01-15T06:06:46;10.30;;;9.90;;
20179;SDS011;10249;48.900;9.090;2024-01-15T06:09:13;10.40;;;10.00;;
20179;SDS011;10249;48.900;9.090;2024-01-15T06:11:40;10.23;;;9.83;;
20179;SDS011;10249;48.900;9.090;2024-01-15T06:14:07;10.30;;;9.90;;
20179;SDS011;10249;48.900;9.090;2024-01-15T06:16:34;10.33;;;9.93;;
20179;SDS011;10249;48.900;9.090;2024-01-15T06:19:01;11.32;;;10.93;;
20179;SDS011;10249;48.900;9.090;2024-01-15T06:21:29;10.57;;;10.17;;
20179;SDS011;10249;48.900;9.090;2024-01-15T06:23:57;11.97;;;11.47;;
20179;SDS011;10249;48.900;9.090;2024-01-15T06:26:24;10.00;;;9.70;;
20179;SDS011;10249;48.900;9.090;2024-01-15T06:28:51;10.33;;;9.93;;
20179;SDS011;10249;48.900;9.090;2024-01-15T06:31:18;10.27;;;9.90;;
20179;SDS011;10249;48.900;9.090;2024-01-15T06:33:45;10.87;;;10.47;;
20179;SDS011;10249;48.900;9.090;2024-01-15T06:36:14;10.40;;;10.00;;
20179;SDS011;10249;48.900;9.090;2024-01-15T06:38:42;10.00;;;9.70;;
20179;SDS011;10249;48.900;9.090;2024-01-15T06:41:11;9.90;;;9.60;;
20179;SDS011;10249;48.900;9.090;2024-01-15T06:43:38;10.30;;;9.90;;
20179;SDS011;10249;48.900;9.090;2024-01-15T06:46:05;10.00;;;9.70;;
20179;SDS011;10249;48.900;9.090;2024-01-15T06:48:32;10.50;;;10.10;;
20179;SDS011;10249;48.900;9.090;2024-01-15T06:50:59;9.83;;;9.53;;
20179;SDS011;10249;48.900;9.090;2024-01-15T06:53:26;9.67;;;9.37;;
20179;SDS011;10249;48.900;9.090;2024-01-15T06:55:53;9.93;;;9.63;;
20179;SDS011;10249;48.900;9.090;2024-01-15T06:58:22;9.87;;;9.57;;
20179;SDS011;10249;48.900;9.090;2024-01-15T07:00:49;9.47;;;9.17;;
20179;SDS011;10249;48.900;9.090;2024-01-15T07:03:16;9.73;;;9.43;;
20179;SDS011;10249;48.900;9.090;2024-01-15T07:05:44;9.50;;;9.20;;
20179;SDS011;10249;48.900;9.090;2024-01-15T07:08:11;10.30;;;10.00;;
20179;SDS011;10249;48.900;9.090;2024-01-15T07:10:38;9.90;;;9.60;;
20179;SDS011;10249;48.900;9.090;2024-01-15T07:13:05;10.13;;;9.83;;
20179;SDS011;10249;48.900;9.090;2024-01-15T07:15:33;10.40;;;10.00;;
20179;SDS011;10249;48.900;9.090;2024-01-15T07:18:01;10.20;;;9.87;;
20179;SDS011;10249;48.900;9.090;2024-01-15T07:20:28;10.83;;;10.43;;
20179;SDS011;10249;48.900;9.090;2024-01-15T07:22:56;10.13;;;9.80;;
20179;SDS011;10249;48.900;9.090;2024-01-15T07:25:23;11.17;;;10.77;;
20179;SDS011;10249;48.900;9.090;2024-01-15T07:27:51;11.67;;;11.13;;
20179;SDS011;10249;48.900;9.090;2024-01-15T07:30:19;10.63;;;10.23;;
20179;SDS011;10249;48.900;9.090;2024-01-15T07:32:48;10.80;;;10.40;;
20179;SDS011;10249;48.900;9.090;2024-01-15T07:35:15;11.20;;;10.80;;
20179;SDS011;10249;48.900;9.090;2024-01-15T07:37:42;11.20;;;10.80;;
20179;SDS011;10249;48.900;9.090;2024-01-15T07:40:09;11.20;;;10.80;;
20179;SDS011;10249;48.900;9.090;2024-01-15T07:42:37;11.47;;;11.07;;
20179;SDS011;10249;48.900;9.090;2024-01-15T07:45:04;11.37;;;10.97;;
20179;SDS011;10249;48.900;9.090;2024-01-15T07:47:31;14.57;;;14.07;;
20179;SDS011;10249;48.900;9.090;2024-01-15T07:50:00;11.23;;;10.83;;
20179;SDS011;10249;48.900;9.090;2024-01-15T07:52:27;11.40;;;11.00;;
20179;SDS011;10249;48.900;9.090;2024-01-15T07:54:55;11.70;;;11.30;;
20179;SDS011;10249;48.900;9.090;2024-01-15T07:57:22;11.90;;;11.50;;
20179;SDS011;10249;48.900;9.090;2024-01-15T07:59:49;11.40;;;11.00;;
20179;SDS011;10249;48.900;9.090;2024-01-15T08:02:16;11.60;;;11.20;;
20179;SDS011;10249;48.900;9.090;2024-01-15T08:04:43;12.30;;;11.70;;
20179;SDS011;10249;48.900;9.090;2024-01-15T08:07:12;11.60;;;11.20;;
20179;SDS011;10249;48.900;9.090;2024-01-15T08:09:39;11.93;;;11.43;;
20179;SDS011;10249;48.900;9.090;2024-01-15T08:12:07;11.53;;;11.13;;
20179;SDS011;10249;48.900;9.090;2024-01-15T08:14:35;12.10;;;11.60;;
20179;SDS011;10249;48.900;9.090;2024-01-15T08:17:02;12.20;;;11.70;;
20179;SDS011;10249;48.900;9.090;2024-01-15T08:19:29;11.90;;;11.40;;
20179;SDS011;10249;48.900;9.090;2024-01-15T08:21:56;12.07;;;11.57;;
20179;SDS011;10249;48.900;9.090;2024-01-15T08:24:24;12.27;;;11.77;;
20179;SDS011;10249;48.900;9.090;2024-01-15T08:26:52;12.70;;;12.20;;
20179;SDS011;10249;48.900;9.090;2024-01-15T08:29:19;12.37;;;11.87;;
20179;SDS011;10249;48.900;9.090;2024-01-15T08:31:46;12.43;;;11.93;;
20179;SDS011;10249;48.900;9.090;2024-01-15T08:34:13;11.50;;;11.10;;
20179;SDS011;10249;48.900;9.090;2024-01-15T08:36:40;11.75;;;11.35;;
20179;SDS011;10249;48.900;9.090;2024-01-15T08:39:07;11.70;;;11.30;;
20179;SDS011;10249;48.900;9.090;2024-01-15T08:41:36;11.60;;;11.20;;
20179;SDS011;10249;48.900;9.090;2024-01-15T08:44:03;11.77;;;11.37;;
20179;SDS011;10249;48.900;9.090;2024-01-15T08:46:30;11.70;;;11.30;;
20179;SDS011;10249;48.900;9.090;2024-01-15T08:48:57;11.80;;;11.40;;
20179;SDS011;10249;48.900;9.090;2024-01-15T08:51:24;11.93;;;11.50;;
20179;SDS011;10249;48.900;9.090;2024-01-15T08:53:51;11.83;;;11.43;;
20179;SDS011;10249;48.900;9.090;2024-01-15T08:56:19;11.80;;;11.40;;
20179;SDS011;10249;48.900;9.090;2024-01-15T08:58:47;12.00;;;11.50;;
20179;SDS011;10249;48.900;9.090;2024-01-15T09:01:15;11.47;;;11.07;;
20179;SDS011;10249;48.900;9.090;2024-01-15T09:03:42;11.60;;;11.20;;
20179;SDS011;10249;48.900;9.090;2024-01-15T09:06:10;11.70;;;11.30;;
20179;SDS011;10249;48.900;9.090;2024-01-15T09:08:37;12.20;;;11.70;;
20179;SDS011;10249;48.900;9.090;2024-01-15T09:11:04;13.60;;;13.00;;
20179;SDS011;10249;48.900;9.090;2024-01-15T09:13:31;11.37;;;10.97;;
20179;SDS011;10249;48.900;9.090;2024-01-15T09:16:00;12.67;;;12.17;;
20179;SDS011;10249;48.900;9.090;2024-01-15T09:18:27;12.00;;;11.50;;
20179;SDS011;10249;48.900;9.090;2024-01-15T09:20:54;12.40;;;11.90;;
20179;SDS011;10249;48.900;9.090;2024-01-15T09:23:21;12.80;;;12.30;;
20179;SDS011;10249;48.900;9.090;2024-01-15T09:25:49;12.90;;;12.40;;
20179;SDS011;10249;48.900;9.090;2024-01-15T09:28:17;13.03;;;12.53;;
20179;SDS011;10249;48.900;9.090;2024-01-15T09:30:44;13.70;;;13.10;;
20179;SDS011;10249;48.900;9.090;2024-01-15T09:33:13;13.47;;;12.90;;
20179;SDS011;10249;48.900;9.090;2024-01-15T09:35:40;14.27;;;13.67;;
20179;SDS011;10249;48.900;9.090;2024-01-15T09:38:08;13.50;;;12.90;;
20179;SDS011;10249;48.900;9.090;2024-01-15T09:40:35;13.70;;;13.10;;
20179;SDS011;10249;48.900;9.090;2024-01-15T09:43:05;13.07;;;12.57;;
20179;SDS011;10249;48.900;9.090;2024-01-15T09:45:33;13.20;;;12.70;;
20179;SDS011;10249;48.900;9.090;2024-01-15T09:48:00;13.90;;;13.30;;
20179;SDS011;10249;48.900;9.090;2024-01-15T09:50:29;13.00;;;12.50;;
20179;SDS011;10249;48.900;9.090;2024-01-15T09:52:56;13.07;;;12.57;;
20179;SDS011;10249;48.900;9.090;2024-01-15T09:55:23;13.50;;;12.90;;
20179;SDS011;10249;48.900;9.090;2024-01-15T09:57:51;13.00;;;12.50;;
20179;SDS011;10249;48.900;9.090;2024-01-15T10:00:19;13.83;;;13.23;;
20179;SDS011;10249;48.900;9.090;2024-01-15T10:02:46;13.80;;;13.20;;
20179;SDS011;10249;48.900;9.090;2024-01-15T10:05:14;14.53;;;13.93;;
20179;SDS011;10249;48.900;9.090;2024-01-15T10:07:43;14.07;;;13.47;;
20179;SDS011;10249;48.900;9.090;2024-01-15T10:10:10;13.00;;;12.50;;
20179;SDS011;10249;48.900;9.090;2024-01-15T10:12:38;13.43;;;12.90;;
20179;SDS011;10249;48.900;9.090;2024-01-15T10:15:06;13.10;;;12.60;;
20179;SDS011;10249;48.900;9.090;2024-01-15T10:17:36;13.27;;;12.77;;
20179;SDS011;10249;48.900;9.090;2024-01-15T10:20:07;13.07;;;12.57;;
20179;SDS011;10249;48.900;9.090;2024-01-15T10:22:34;13.37;;;12.87;;
20179;SDS011;10249;48.900;9.090;2024-01-15T10:25:04;13.30;;;12.80;;
20179;SDS011;10249;48.900;9.090;2024-01-15T10:27:32;12.97;;;12.47;;
20179;SDS011;10249;48.900;9.090;2024-01-15T10:29:59;13.10;;;12.60;;
20179;SDS011;10249;48.900;9.090;2024-01-15T10:32:27;13.23;;;12.73;;
20179;SDS011;10249;48.900;9.090;2024-01-15T10:34:55;12.50;;;12.00;;
20179;SDS011;10249;48.900;9.090;2024-01-15T10:37:23;13.97;;;13.37;;
20179;SDS011;10249;48.900;9.090;2024-01-15T10:39:51;12.60;;;12.10;;
20179;SDS011;10249;48.900;9.090;2024-01-15T10:42:19;12.60;;;12.10;;
20179;SDS011;10249;48.900;9.090;2024-01-15T10:44:46;11.87;;;11.37;;
20179;SDS011;10249;48.900;9.090;2024-01-15T10:47:14;12.50;;;12.00;;
20179;SDS011;10249;48.900;9.090;2024-01-15T10:49:41;12.90;;;12.40;;
20179;SDS011;10249;48.900;9.090;2024-01-15T10:52:08;12.80;;;12.10;;
20179;SDS011;10249;48.900;9.090;2024-01-15T10:54:35;11.90;;;11.40;;
20179;SDS011;10249;48.900;9.090;2024-01-15T10:57:04;11.20;;;10.80;;
20179;SDS011;10249;48.900;9.090;2024-01-15T10:59:32;11.47;;;11.07;;
20179;SDS011;10249;48.900;9.090;2024-01-15T11:02:00;11.30;;;10.70;;
20179;SDS011;10249;48.900;9.090;2024-01-15T11:04:27;10.63;;;10.23;;
20179;SDS011;10249;48.900;9.090;2024-01-15T11:06:55;9.70;;;9.40;;
20179;SDS011;10249;48.900;9.090;2024-01-15T11:09:22;9.47;;;9.17;;
20179;SDS011;10249;48.900;9.090;2024-01-15T11:11:52;9.27;;;8.97;;
20179;SDS011;10249;48.900;9.090;2024-01-15T11:14:38;11.10;;;10.60;;
20179;SDS011;10249;48.900;9.090;2024-01-15T11:17:05;9.00;;;8.70;;
20179;SDS011;10249;48.900;9.090;2024-01-15T11:19:36;7.90;;;7.70;;
20179;SDS011;10249;48.900;9.090;2024-01-15T11:22:05;8.43;;;8.13;;
20179;SDS011;10249;48.900;9.090;2024-01-15T11:24:35;7.90;;;7.70;;
20179;SDS011;10249;48.900;9.090;2024-01-15T11:27:03;8.33;;;8.03;;
20179;SDS011;10249;48.900;9.090;2024-01-15T11:29:29;8.97;;;8.67;;
20179;SDS011;10249;48.900;9.090;2024-01-15T11:32:02;8.47;;;8.17;;
20179;SDS011;10249;48.900;9.090;2024-01-15T11:37:16;8.93;;;8.63;;
20179;SDS011;10249;48.900;9.090;2024-01-15T11:39:43;9.73;;;9.33;;
20179;SDS011;10249;48.900;9.090;2024-01-15T11:42:12;8.70;;;8.40;;
20179;SDS011;10249;48.900;9.090;2024-01-15T11:44:39;8.50;;;8.20;;
20179;SDS011;10249;48.900;9.090;2024-01-15T11:47:08;9.33;;;8.83;;
20179;SDS011;10249;48.900;9.090;2024-01-15T11:49:46;9.17;;;8.77;;
20179;SDS011;10249;48.900;9.090;2024-01-15T11:52:18;8.20;;;7.90;;
20179;SDS011;10249;48.900;9.090;2024-01-15T11:55:01;8.10;;;7.80;;
20179;SDS011;10249;48.900;9.090;2024-01-15T11:57:41;8.37;;;8.07;;
20179;SDS011;10249;48.900;9.090;2024-01-15T12:00:09;9.07;;;8.43;;
20179;SDS011;10249;48.900;9.090;2024-01-15T12:02:38;9.10;;;8.80;;
20179;SDS011;10249;48.900;9.090;2024-01-15T12:05:06;7.20;;;7.00;;
20179;SDS011;10249;48.900;9.090;2024-01-15T12:07:33;7.53;;;7.33;;
20179;SDS011;10249;48.900;9.090;2024-01-15T12:10:01;8.97;;;8.57;;
20179;SDS011;10249;48.900;9.090;2024-01-15T12:12:32;8.13;;;7.83;;
20179;SDS011;10249;48.900;9.090;2024-01-15T12:15:02;8.60;;;8.30;;
20179;SDS011;10249;48.900;9.090;2024-01-15T12:17:29;7.90;;;7.70;;
20179;SDS011;10249;48.900;9.090;2024-01-15T12:19:57;8.50;;;8.20;;
20179;SDS011;10249;48.900;9.090;2024-01-15T12:22:24;9.10;;;8.70;;
20179;SDS011;10249;48.900;9.090;2024-01-15T12:24:52;9.13;;;8.73;;
20179;SDS011;10249;48.900;9.090;2024-01-15T12:27:20;8.83;;;8.37;;
20179;SDS011;10249;48.900;9.090;2024-01-15T12:29:47;8.20;;;7.90;;
20179;SDS011;10249;48.900;9.090;2024-01-15T12:32:14;7.80;;;7.60;;
20179;SDS011;10249;48.900;9.090;2024-01-15T12:34:42;6.30;;;6.10;;
20179;SDS011;10249;48.900;9.090;2024-01-15T12:37:11;7.47;;;7.13;;
20179;SDS011;10249;48.900;9.090;2024-01-15T12:39:38;6.30;;;6.10;;
20179;SDS011;10249;48.900;9.090;2024-01-15T12:42:05;8.10;;;7.70;;
20179;SDS011;10249;48.900;9.090;2024-01-15T12:44:32;7.20;;;7.00;;
20179;SDS011;10249;48.900;9.090;2024-01-15T12:47:00;7.80;;;7.50;;
20179;SDS011;10249;48.900;9.090;2024-01-15T12:49:28;7.40;;;7.20;;
20179;SDS011;10249;48.900;9.090;2024-01-15T12:51:56;8.13;;;7.83;;
20179;SDS011;10249;48.900;9.090;2024-01-15T12:54:25;8.60;;;8.20;;
20179;SDS011;10249;48.900;9.090;2024-01-15T12:56:52;9.23;;;8.90;;
20179;SDS011;10249;48.900;9.090;2024-01-15T12:59:19;9.20;;;8.90;;
20179;SDS011;10249;48.900;9.090;2024-01-15T13:01:47;10.33;;;9.93;;
20179;SDS011;10249;48.900;9.090;2024-01-15T13:04:20;10.37;;;9.87;;
20179;SDS011;10249;48.900;9.090;2024-01-15T13:06:48;9.40;;;9.10;;
20179;SDS011;10249;48.900;9.090;2024-01-15T13:09:15;9.57;;;9.27;;
20179;SDS011;10249;48.900;9.090;2024-01-15T13:11:44;9.70;;;9.40;;
20179;SDS011;10249;48.900;9.090;2024-01-15T13:14:11;10.67;;;10.17;;
20179;SDS011;10249;48.900;9.090;2024-01-15T13:16:39;11.07;;;10.50;;
20179;SDS011;10249;48.900;9.090;2024-01-15T13:19:06;9.90;;;9.50;;
20179;SDS011;10249;48.900;9.090;2024-01-15T13:21:36;9.43;;;9.13;;
20179;SDS011;10249;48.900;9.090;2024-01-15T13:24:03;10.40;;;10.00;;
20179;SDS011;10249;48.900;9.090;2024-01-15T13:26:30;9.30;;;8.90;;
20179;SDS011;10249;48.900;9.090;2024-01-15T13:28:59;10.23;;;9.83;;
20179;SDS011;10249;48.900;9.090;2024-01-15T13:31:26;9.13;;;8.83;;
20179;SDS011;10249;48.900;9.090;2024-01-15T13:33:53;9.70;;;9.20;;
20179;SDS011;10249;48.900;9.090;2024-01-15T13:36:21;8.90;;;8.60;;
20179;SDS011;10249;48.900;9.090;2024-01-15T13:38:48;9.30;;;9.00;;
20179;SDS011;10249;48.900;9.090;2024-01-15T13:41:15;9.70;;;9.40;;
20179;SDS011;10249;48.900;9.090;2024-01-15T13:43:44;11.27;;;10.70;;
20179;SDS011;10249;48.900;9.090;2024-01-15T13:46:12;9.30;;;9.00;;
20179;SDS011;10249;48.900;9.090;2024-01-15T13:48:39;11.23;;;10.53;;
20179;SDS011;10249;48.900;9.090;2024-01-15T13:51:06;9.70;;;9.30;;
20179;SDS011;10249;48.900;9.090;2024-01-15T13:53:33;10.30;;;9.90;;
20179;SDS011;10249;48.900;9.090;2024-01-15T13:56:00;10.60;;;10.10;;
20179;SDS011;10249;48.900;9.090;2024-01-15T13:58:27;9.80;;;9.43;;
20179;SDS011;10249;48.900;9.090;2024-01-15T14:00:55;10.47;;;9.97;;
20179;SDS011;10249;48.900;9.090;2024-01-15T14:03:23;9.10;;;8.70;;
20179;SDS011;10249;48.900;9.090;2024-01-15T14:05:50;9.10;;;8.80;;
20179;SDS011;10249;48.900;9.090;2024-01-15T14:08:18;10.73;;;10.23;;
20179;SDS011;10249;48.900;9.090;2024-01-15T14:10:45;10.07;;;9.70;;
20179;SDS011;10249;48.900;9.090;2024-01-15T14:13:12;9.40;;;8.90;;
20179;SDS011;10249;48.900;9.090;2024-01-15T14:15:39;10.13;;;9.53;;
20179;SDS011;10249;48.900;9.090;2024-01-15T14:18:06;8.47;;;8.17;;
20179;SDS011;10249;48.900;9.090;2024-01-15T14:20:35;9.60;;;9.20;;
20179;SDS011;10249;48.900;9.090;2024-01-15T14:23:02;11.17;;;10.57;;
20179;SDS011;10249;48.900;9.090;2024-01-15T14:25:29;10.60;;;10.10;;
20179;SDS011;10249;48.900;9.090;2024-01-15T14:27:56;10.77;;;10.10;;
20179;SDS011;10249;48.900;9.090;2024-01-15T14:30:23;9.30;;;8.90;;
20179;SDS011;10249;48.900;9.090;2024-01-15T14:32:50;10.50;;;10.00;;
20179;SDS011;10249;48.900;9.090;2024-01-15T14:35:17;9.30;;;9.00;;
20179;SDS011;10249;48.900;9.090;2024-01-15T14:37:46;10.37;;;9.80;;